Time;durP1;ratioP1;P1;durP2;ratioP2;P2;SDS_P1;SDS_P2;PMS_P1;PMS_P2;Temp;Humidity;BMP_temperature;BMP_pressure;BME280_temperature;BME280_humidity;BME280_pressure;Samples;Min_cycle;Max_cycle;Signal;HPM_P1;HPM_P2
2023/01/11 00:00:55;;;;;;;8.70;3.15;;;4.50;99.90;;;;;;5029276;28;20037;-66
2023/01/11 00:03:22;;;;;;;8.85;3.50;;;4.50;99.90;;;;;;5032064;28;20042;-66
2023/01/11 00:05:54;;;;;;;8.75;3.55;;;4.50;99.90;;;;;;5031784;28;20139;-65
2023/01/11 00:08:23;;;;;;;11.95;3.90;;;4.50;99.90;;;;;;5032416;28;20530;-68
2023/01/11 00:10:50;;;;;;;8.82;3.35;;;4.50;99.90;;;;;;5030585;28;20048;-67
2023/01/11 00:13:18;;;;;;;11.60;3.35;;;4.60;99.90;;;;;;5031969;28;20075;-68
2023/01/11 00:15:45;;;;;;;7.03;3.88;;;4.60;99.90;;;;;;5030249;28;20041;-66
2023/01/11 00:18:12;;;;;;;12.95;3.70;;;4.50;99.90;;;;;;5031998;28;20136;-64
2023/01/11 00:20:40;;;;;;;7.38;3.45;;;4.50;99.90;;;;;;5024931;28;20512;-69
2023/01/11 00:23:08;;;;;;;8.30;3.92;;;4.60;99.90;;;;;;5030277;28;20049;-64
2023/01/11 00:25:35;;;;;;;9.07;3.22;;;4.50;99.90;;;;;;5030315;28;20479;-65
2023/01/11 00:28:04;;;;;;;6.93;3.47;;;4.50;99.90;;;;;;5032075;28;20056;-65
2023/01/11 00:30:32;;;;;;;12.05;4.03;;;4.50;99.90;;;;;;5031871;28;20125;-68
2023/01/11 00:32:59;;;;;;;7.13;3.65;;;4.50;99.90;;;;;;5012801;28;20053;-68
2023/01/11 00:35:29;;;;;;;9.15;3.45;;;4.50;99.90;;;;;;5030032;28;20070;-65
2023/01/11 00:37:56;;;;;;;8.02;3.67;;;4.60;99.90;;;;;;5031649;28;20067;-68
2023/01/11 00:40:25;;;;;;;9.35;3.40;;;4.60;99.90;;;;;;5029764;28;20459;-64
2023/01/11 00:47:55;;;;;;;7.50;3.97;;;4.50;99.90;;;;;;5031285;28;20068;-66
2023/01/11 00:48:44;;;;;;;8.50;3.58;;;4.60;99.90;;;;;;5031723;28;20076;-65
2023/01/11 00:51:11;;;;;;;7.68;4.03;;;4.50;99.90;;;;;;5015134;28;20057;-68
2023/01/11 00:53:39;;;;;;;7.97;3.97;;;4.40;99.90;;;;;;5025490;28;20041;-67
2023/01/11 00:56:06;;;;;;;8.95;3.67;;;4.40;99.90;;;;;;5013260;28;20460;-64
2023/01/11 00:58:33;;;;;;;9.25;3.65;;;4.50;99.90;;;;;;5029832;28;20056;-65
2023/01/11 01:01:05;;;;;;;8.25;3.50;;;4.50;99.90;;;;;;5030606;28;20048;-66
2023/01/11 01:03:33;;;;;;;7.53;4.03;;;4.40;99.90;;;;;;5029877;28;20057;-67
2023/01/11 01:06:00;;;;;;;9.20;4.00;;;4.30;99.90;;;;;;5008137;28;20048;-65
2023/01/11 01:08:27;;;;;;;8.07;3.83;;;4.30;99.90;;;;;;5029289;28;20143;-65
2023/01/11 01:10:55;;;;;;;12.30;4.28;;;4.20;99.90;;;;;;5029752;28;20400;-68
2023/01/11 01:16:08;;;;;;;9.88;4.50;;;4.20;99.90;;;;;;5031168;28;20091;-68
2023/01/11 01:18:35;;;;;;;9.05;4.10;;;4.20;99.90;;;;;;5030417;28;20046;-66
2023/01/11 01:21:03;;;;;;;11.98;4.30;;;4.20;99.90;;;;;;5031566;28;20038;-64
2023/01/11 01:23:30;;;;;;;9.63;4.38;;;4.20;99.90;;;;;;5030172;28;20052;-65
2023/01/11 01:26:01;;;;;;;10.25;4.25;;;4.10;99.90;;;;;;5028644;28;20037;-66
2023/01/11 01:28:28;;;;;;;9.52;4.18;;;4.10;99.90;;;;;;4997093;28;20049;-65
2023/01/11 01:30:56;;;;;;;7.32;4.00;;;4.10;99.90;;;;;;5031242;28;20388;-65
2023/01/11 01:33:23;;;;;;;11.05;5.30;;;4.10;99.90;;;;;;5029860;28;20072;-65
2023/01/11 01:35:51;;;;;;;10.00;3.88;;;4.10;99.90;;;;;;5029451;28;20049;-64
2023/01/11 01:38:18;;;;;;;9.90;4.47;;;4.20;99.90;;;;;;5029591;28;20076;-66
2023/01/11 01:40:47;;;;;;;11.23;4.75;;;4.20;99.90;;;;;;5013250;28;20507;-66
2023/01/11 01:43:16;;;;;;;8.70;3.75;;;4.20;99.90;;;;;;5029088;28;20045;-66
2023/01/11 01:45:43;;;;;;;10.02;4.13;;;4.30;99.90;;;;;;5029933;28;20068;-66
2023/01/11 01:48:17;;;;;;;7.63;4.20;;;4.20;99.90;;;;;;5030536;28;20500;-63
2023/01/11 01:50:50;;;;;;;7.15;3.72;;;4.30;99.90;;;;;;5030075;28;20075;-65
2023/01/11 01:53:25;;;;;;;8.98;4.20;;;4.30;99.90;;;;;;5030185;28;20084;-64
2023/01/11 01:55:56;;;;;;;9.35;4.05;;;4.30;99.90;;;;;;5028701;28;20413;-64
2023/01/11 01:58:31;;;;;;;9.07;3.90;;;4.30;99.90;;;;;;5030314;28;20421;-64
2023/01/11 02:01:45;;;;;;;10.38;4.05;;;4.40;99.90;;;;;;5026656;28;20133;-65
2023/01/11 02:03:47;;;;;;;10.00;4.78;;;4.40;99.90;;;;;;5028193;28;20379;-65
2023/01/11 02:06:15;;;;;;;11.45;3.97;;;4.40;99.90;;;;;;5029665;28;20607;-64
2023/01/11 02:08:47;;;;;;;8.45;3.97;;;4.40;99.90;;;;;;5028757;28;20158;-65
2023/01/11 02:11:31;;;;;;;9.82;4.13;;;4.50;99.90;;;;;;5028461;28;20041;-66
2023/01/11 02:14:01;;;;;;;8.85;4.40;;;4.50;99.90;;;;;;5030034;28;20041;-64
2023/01/11 02:16:29;;;;;;;6.55;3.63;;;4.50;99.90;;;;;;5017268;28;20095;-65
2023/01/11 02:18:58;;;;;;;8.75;4.07;;;4.50;99.90;;;;;;5028157;28;20045;-65
2023/01/11 02:21:49;;;;;;;10.52;4.32;;;4.50;99.90;;;;;;5029434;28;20048;-65
2023/01/11 02:24:41;;;;;;;9.15;4.22;;;4.50;99.90;;;;;;5029406;28;20041;-66
2023/01/11 02:27:31;;;;;;;11.73;4.68;;;4.50;99.90;;;;;;5029482;28;20033;-65
2023/01/11 02:30:24;;;;;;;7.57;3.90;;;4.60;99.90;;;;;;4992748;28;20362;-65
2023/01/11 02:33:13;;;;;;;9.52;4.20;;;4.60;99.90;;;;;;4979182;28;20539;-65
2023/01/11 02:36:16;;;;;;;8.68;4.15;;;4.60;99.90;;;;;;4992557;28;20121;-64
2023/01/11 02:38:49;;;;;;;;;;;4.60;99.90;;;;;;4912499;29;20055;-64
2023/01/11 02:45:06;;;;;;;11.10;4.30;;;4.60;99.90;;;;;;4928067;29;20063;-64
2023/01/11 02:48:14;;;;;;;8.95;4.47;;;4.70;99.90;;;;;;4919219;29;20131;-66
2023/01/11 02:50:47;;;;;;;7.57;4.40;;;4.70;99.90;;;;;;4917586;29;20149;-64
2023/01/11 02:53:22;;;;;;;13.57;4.45;;;4.70;99.90;;;;;;4929552;29;20543;-65
2023/01/11 02:55:55;;;;;;;8.40;4.82;;;4.70;99.90;;;;;;4913815;29;20064;-65
2023/01/11 02:58:26;;;;;;;9.48;4.45;;;4.70;99.90;;;;;;4929543;29;20533;-64
2023/01/11 03:00:57;;;;;;;11.73;4.40;;;4.70;99.90;;;;;;4928214;29;20067;-65
2023/01/11 03:03:28;;;;;;;9.38;4.03;;;4.70;99.90;;;;;;4928358;29;20052;-65
2023/01/11 03:06:14;;;;;;;8.50;4.38;;;4.70;99.90;;;;;;4932443;28;20051;-65
2023/01/11 03:08:56;;;;;;;9.00;4.50;;;4.70;99.90;;;;;;4967246;28;20059;-65
2023/01/11 03:14:27;;;;;;;8.95;4.13;;;4.80;99.90;;;;;;4958269;28;20476;-65
2023/01/11 03:17:44;;;;;;;9.63;4.50;;;4.80;99.90;;;;;;5010128;28;20420;-65
2023/01/11 03:20:29;;;;;;;8.10;4.30;;;4.80;99.90;;;;;;4988714;28;20494;-65
2023/01/11 03:23:09;;;;;;;9.00;4.50;;;4.80;99.90;;;;;;4983416;28;20636;-65
2023/01/11 03:25:58;;;;;;;8.55;4.70;;;4.80;99.90;;;;;;4978449;28;20050;-65
2023/01/11 03:28:38;;;;;;;7.38;3.90;;;4.80;99.90;;;;;;4986340;28;20053;-65
2023/01/11 03:31:29;;;;;;;9.15;4.32;;;4.80;99.90;;;;;;4985840;28;20089;-66
2023/01/11 03:34:13;;;;;;;7.47;4.00;;;4.80;99.90;;;;;;4970310;28;20057;-66
2023/01/11 03:36:57;;;;;;;7.53;4.05;;;4.90;99.90;;;;;;4989380;28;20042;-66
2023/01/11 03:39:32;;;;;;;7.78;4.28;;;4.90;99.90;;;;;;4987143;28;20042;-65
2023/01/11 03:42:03;;;;;;;9.77;4.55;;;4.90;99.90;;;;;;4990171;28;20165;-65
2023/01/11 03:44:34;;;;;;;7.78;4.13;;;4.90;99.90;;;;;;4989924;28;20042;-66
2023/01/11 03:47:05;;;;;;;9.05;4.00;;;5.00;99.90;;;;;;4989267;28;20422;-65
2023/01/11 03:49:39;;;;;;;6.10;3.63;;;5.00;99.90;;;;;;4991143;28;20089;-65
2023/01/11 03:52:11;;;;;;;14.52;4.20;;;5.00;99.90;;;;;;5040897;28;20045;-65
2023/01/11 03:54:39;;;;;;;;;;;5.00;99.90;;;;;;5031613;28;20053;-64
2023/01/11 03:57:08;;;;;;;9.18;4.03;;;5.00;99.90;;;;;;5041133;28;20002;-64
2023/01/11 03:59:37;;;;;;;7.70;3.95;;;5.10;99.90;;;;;;5030226;28;20045;-67
2023/01/11 04:02:17;;;;;;;8.25;3.72;;;5.00;99.90;;;;;;5031422;28;20042;-64
2023/01/11 04:04:45;;;;;;;6.93;3.80;;;5.10;99.90;;;;;;5030513;28;20420;-64
2023/01/11 04:07:13;;;;;;;10.48;3.65;;;5.10;99.90;;;;;;5032110;28;20121;-66
2023/01/11 04:09:40;;;;;;;12.48;4.20;;;5.10;99.90;;;;;;5031778;28;20052;-64
2023/01/11 04:12:08;;;;;;;8.23;4.10;;;5.10;99.90;;;;;;5032155;28;20037;-65
2023/01/11 04:14:35;;;;;;;9.35;3.70;;;5.10;99.90;;;;;;5030108;28;20046;-64
2023/01/11 04:17:04;;;;;;;8.90;3.40;;;5.10;99.90;;;;;;5031309;28;20514;-65
2023/01/11 04:19:31;;;;;;;11.82;3.88;;;5.10;99.90;;;;;;5040629;28;20389;-64
2023/01/11 04:21:58;;;;;;;7.35;3.47;;;5.10;99.90;;;;;;5032224;28;20682;-65
2023/01/11 04:24:25;;;;;;;5.65;3.65;;;5.20;99.90;;;;;;5035687;28;20037;-65
2023/01/11 04:26:53;;;;;;;8.27;4.00;;;5.20;99.90;;;;;;5031760;28;20526;-64
2023/01/11 04:29:20;;;;;;;7.90;3.80;;;5.20;99.90;;;;;;5030499;28;20077;-64
2023/01/11 04:31:47;;;;;;;5.80;3.28;;;5.20;99.90;;;;;;5031126;28;20052;-64
2023/01/11 04:34:14;;;;;;;7.45;3.53;;;5.10;99.90;;;;;;5028848;28;20115;-64
2023/01/11 04:36:42;;;;;;;11.75;3.60;;;5.10;99.90;;;;;;5030422;28;20416;-64
2023/01/11 04:39:09;;;;;;;9.15;3.53;;;5.10;99.90;;;;;;5031427;28;20048;-64
2023/01/11 04:44:23;;;;;;;7.53;3.72;;;5.10;99.90;;;;;;5024764;28;20053;-67
2023/01/11 04:46:51;;;;;;;6.38;3.33;;;5.20;99.90;;;;;;5033392;28;20041;-65
2023/01/11 04:49:18;;;;;;;6.80;3.50;;;5.20;99.90;;;;;;5030535;28;20432;-64
2023/01/11 04:51:45;;;;;;;8.00;3.38;;;5.20;99.90;;;;;;5028094;28;20072;-64
2023/01/11 04:54:15;;;;;;;7.28;3.65;;;5.20;99.90;;;;;;5030101;28;20052;-63
2023/01/11 04:56:42;;;;;;;7.53;3.35;;;5.10;99.90;;;;;;5038345;28;20073;-64
2023/01/11 04:59:09;;;;;;;10.18;3.65;;;5.20;99.90;;;;;;5031542;28;20064;-65
2023/01/11 05:01:37;;;;;;;6.20;2.92;;;5.10;99.90;;;;;;5028574;28;20587;-65
2023/01/11 05:04:04;;;;;;;7.97;4.00;;;5.20;99.90;;;;;;5030472;28;20041;-66
2023/01/11 05:06:32;;;;;;;7.15;3.33;;;5.20;99.90;;;;;;5029962;28;20526;-68
2023/01/11 05:08:59;;;;;;;12.00;4.30;;;5.20;99.90;;;;;;5028751;28;20401;-67
2023/01/11 05:11:26;;;;;;;7.43;4.18;;;5.10;99.90;;;;;;5029820;28;20046;-69
2023/01/11 05:13:54;;;;;;;9.68;4.10;;;5.20;99.90;;;;;;5030270;28;20049;-66
2023/01/11 05:16:23;;;;;;;7.32;3.47;;;5.20;99.90;;;;;;5028714;28;20179;-65
2023/01/11 05:18:53;;;;;;;8.70;4.03;;;5.20;99.90;;;;;;5028429;28;20397;-68
2023/01/11 05:21:23;;;;;;;6.28;3.30;;;5.20;99.90;;;;;;5035249;28;20046;-65
2023/01/11 05:23:50;;;;;;;9.32;3.55;;;5.20;99.90;;;;;;5030528;28;20064;-65
2023/01/11 05:26:23;;;;;;;6.35;3.05;;;5.20;99.90;;;;;;5029581;28;20585;-67
2023/01/11 05:28:51;;;;;;;6.53;3.40;;;5.20;99.90;;;;;;5038447;28;20049;-68
2023/01/11 05:31:18;;;;;;;8.18;3.72;;;5.30;99.90;;;;;;5028986;28;20044;-65
2023/01/11 05:33:46;;;;;;;8.05;3.58;;;5.30;99.90;;;;;;5028413;28;20042;-65
2023/01/11 05:36:16;;;;;;;8.05;3.40;;;5.30;99.90;;;;;;5029765;28;20209;-68
2023/01/11 05:38:48;;;;;;;8.00;3.55;;;5.20;99.90;;;;;;5030483;28;20488;-65
2023/01/11 05:41:16;;;;;;;7.43;3.30;;;5.30;99.90;;;;;;5031319;28;20045;-67
2023/01/11 05:46:32;;;;;;;9.45;3.58;;;5.30;99.90;;;;;;5028764;28;20543;-65
2023/01/11 05:49:00;;;;;;;6.40;3.35;;;5.30;99.90;;;;;;5028657;28;20033;-66
2023/01/11 05:51:29;;;;;;;7.30;3.30;;;5.30;99.90;;;;;;5030327;28;20042;-65
2023/01/11 05:53:57;;;;;;;5.57;2.95;;;5.30;99.90;;;;;;5029878;28;20476;-65
2023/01/11 05:56:25;;;;;;;8.20;3.00;;;5.40;99.90;;;;;;5030051;28;20048;-65
2023/01/11 05:58:52;;;;;;;7.68;3.15;;;5.30;99.90;;;;;;5028859;28;20056;-68
2023/01/11 06:01:21;;;;;;;6.40;3.10;;;5.40;99.90;;;;;;5031605;28;20081;-68
2023/01/11 06:03:48;;;;;;;7.88;3.30;;;5.40;99.90;;;;;;5028215;28;20495;-65
2023/01/11 06:06:17;;;;;;;7.35;3.15;;;5.40;99.90;;;;;;5027699;28;20147;-68
2023/01/11 06:08:44;;;;;;;5.95;3.05;;;5.40;99.90;;;;;;5036328;28;20136;-64
2023/01/11 06:11:13;;;;;;;6.63;3.35;;;5.40;99.90;;;;;;5030050;28;20353;-68
2023/01/11 06:13:40;;;;;;;8.52;3.25;;;5.40;99.90;;;;;;5029706;28;20045;-65
2023/01/11 06:16:12;;;;;;;6.07;3.10;;;5.50;99.90;;;;;;5029296;28;20045;-66
2023/01/11 06:18:42;;;;;;;7.07;3.30;;;5.50;99.90;;;;;;5029937;28;20391;-65
2023/01/11 06:21:10;;;;;;;8.27;3.55;;;5.60;99.90;;;;;;5029557;28;20042;-66
2023/01/11 06:23:40;;;;;;;6.35;3.10;;;5.50;99.90;;;;;;5029691;28;20051;-66
2023/01/11 06:26:09;;;;;;;10.02;3.38;;;5.60;99.90;;;;;;5029499;28;20499;-66
2023/01/11 06:28:37;;;;;;;8.60;3.33;;;5.60;99.90;;;;;;5029564;28;20037;-65
2023/01/11 06:31:06;;;;;;;6.50;2.90;;;5.70;99.90;;;;;;5029363;28;20499;-64
2023/01/11 06:33:35;;;;;;;6.95;3.22;;;5.70;99.90;;;;;;5016961;28;20484;-65
2023/01/11 06:36:08;;;;;;;6.90;3.15;;;5.70;99.90;;;;;;5021855;28;20465;-65
2023/01/11 06:38:36;;;;;;;8.07;3.38;;;5.70;99.90;;;;;;5016678;28;20112;-64
2023/01/11 06:41:07;;;;;;;9.55;3.63;;;5.80;99.90;;;;;;5019134;28;20129;-65
2023/01/11 06:43:36;;;;;;;6.75;3.05;;;5.80;99.90;;;;;;5016902;28;20121;-66
2023/01/11 06:46:04;;;;;;;9.38;3.05;;;5.90;99.90;;;;;;5025875;28;21470;-66
2023/01/11 06:48:31;;;;;;;7.68;3.30;;;5.90;99.90;;;;;;5021365;28;20084;-66
2023/01/11 06:50:58;;;;;;;7.80;3.60;;;5.90;99.90;;;;;;5028873;28;20052;-68
2023/01/11 06:53:27;;;;;;;8.85;3.08;;;5.90;99.90;;;;;;5028166;28;20084;-68
2023/01/11 06:55:57;;;;;;;8.93;3.38;;;6.00;99.90;;;;;;5028669;28;20060;-65
2023/01/11 06:58:25;;;;;;;7.97;3.22;;;6.00;99.90;;;;;;5021203;28;20100;-66
2023/01/11 07:00:55;;;;;;;7.07;3.33;;;6.00;99.90;;;;;;5029086;28;20688;-65
2023/01/11 07:03:24;;;;;;;6.80;3.05;;;6.00;99.90;;;;;;5027330;28;20124;-64
2023/01/11 07:05:53;;;;;;;9.68;3.25;;;6.00;99.90;;;;;;5028370;28;20037;-69
2023/01/11 07:08:20;;;;;;;7.35;3.20;;;6.00;99.90;;;;;;5009838;28;20042;-69
2023/01/11 07:10:48;;;;;;;7.75;2.90;;;6.00;99.90;;;;;;5027018;28;20595;-69
2023/01/11 07:13:16;;;;;;;7.13;3.40;;;6.10;99.90;;;;;;5010537;28;20059;-70
2023/01/11 07:15:47;;;;;;;7.63;3.10;;;6.10;99.90;;;;;;5028145;28;20103;-69
2023/01/11 07:18:15;;;;;;;8.82;3.10;;;6.10;99.90;;;;;;5031548;28;20590;-69
2023/01/11 07:20:42;;;;;;;8.75;3.38;;;6.10;99.90;;;;;;5030714;28;20037;-69
2023/01/11 07:23:10;;;;;;;5.88;3.20;;;6.10;99.90;;;;;;5014931;28;20048;-70
2023/01/11 07:25:37;;;;;;;6.72;3.00;;;6.10;99.90;;;;;;5032871;28;20041;-70
2023/01/11 07:28:06;;;;;;;10.65;3.15;;;6.10;99.90;;;;;;5030831;28;20056;-69
2023/01/11 07:30:37;;;;;;;5.80;2.83;;;6.10;99.90;;;;;;5011104;28;20046;-69
2023/01/11 07:33:23;;;;;;;6.60;2.60;;;6.20;99.90;;;;;;5026550;28;20280;-69
2023/01/11 07:35:51;;;;;;;6.78;2.80;;;6.20;99.90;;;;;;5029224;28;20051;-69
2023/01/11 07:38:18;;;;;;;7.05;2.90;;;6.30;99.90;;;;;;5030589;28;20529;-65
2023/01/11 07:40:45;;;;;;;9.40;2.75;;;6.30;99.90;;;;;;5028289;28;20061;-68
2023/01/11 07:43:13;;;;;;;6.85;2.72;;;6.40;99.90;;;;;;5030550;28;20054;-70
2023/01/11 07:45:47;;;;;;;6.22;2.60;;;6.50;99.90;;;;;;5032184;28;20477;-70
2023/01/11 07:48:20;;;;;;;5.93;2.80;;;6.50;99.90;;;;;;5031119;28;20041;-69
2023/01/11 07:50:47;;;;;;;6.38;2.55;;;6.60;99.90;;;;;;5025054;28;20136;-70
2023/01/11 07:53:17;;;;;;;8.30;3.15;;;6.60;99.90;;;;;;5028776;28;20522;-69
2023/01/11 07:55:45;;;;;;;4.75;2.30;;;6.70;99.90;;;;;;5011254;28;20394;-71
2023/01/11 07:58:14;;;;;;;5.85;3.00;;;6.70;99.90;;;;;;5031008;28;20075;-70
2023/01/11 08:00:42;;;;;;;6.15;2.80;;;6.80;99.90;;;;;;5027709;28;20520;-68
2023/01/11 08:03:09;;;;;;;8.95;3.42;;;6.80;99.90;;;;;;5028558;28;20069;-69
2023/01/11 08:05:37;;;;;;;9.40;3.22;;;6.90;99.90;;;;;;5029039;28;20146;-67
2023/01/11 08:08:04;;;;;;;7.63;3.90;;;6.90;99.90;;;;;;5033443;28;20091;-70
2023/01/11 08:10:32;;;;;;;5.97;2.63;;;7.00;99.90;;;;;;5037469;28;20404;-69
2023/01/11 08:15:46;;;;;;;5.40;2.63;;;7.00;99.90;;;;;;5027914;28;20448;-68
2023/01/11 08:18:13;;;;;;;5.53;2.75;;;7.10;99.90;;;;;;5030544;28;20044;-69
2023/01/11 08:20:40;;;;;;;5.75;2.72;;;7.10;99.90;;;;;;5035213;28;20517;-68
2023/01/11 08:23:09;;;;;;;6.53;3.15;;;7.10;99.90;;;;;;5026688;28;20160;-67
2023/01/11 08:25:37;;;;;;;8.45;2.47;;;7.20;99.90;;;;;;5028764;28;20429;-69
2023/01/11 08:28:06;;;;;;;4.93;2.70;;;7.20;99.90;;;;;;5026931;28;20117;-67
2023/01/11 08:30:35;;;;;;;6.50;2.83;;;7.30;99.90;;;;;;5035818;28;20516;-68
2023/01/11 08:33:04;;;;;;;5.90;2.22;;;7.40;99.90;;;;;;5037024;28;20045;-69
2023/01/11 08:35:36;;;;;;;6.00;2.28;;;7.50;99.90;;;;;;5028520;28;20044;-69
2023/01/11 08:38:04;;;;;;;3.90;2.22;;;7.60;99.90;;;;;;5030567;28;20445;-69
2023/01/11 08:40:33;;;;;;;7.50;2.50;;;7.60;99.90;;;;;;5030042;28;20532;-68
2023/01/11 08:43:00;;;;;;;4.72;2.55;;;7.60;99.90;;;;;;5033946;28;20518;-69
2023/01/11 08:45:27;;;;;;;6.38;2.95;;;7.60;99.90;;;;;;5029219;28;20447;-68
2023/01/11 08:47:55;;;;;;;6.32;2.40;;;7.60;99.90;;;;;;5030843;28;20052;-71
2023/01/11 08:50:22;;;;;;;4.78;2.30;;;7.60;99.90;;;;;;5017283;28;20139;-71
2023/01/11 08:52:50;;;;;;;8.23;2.40;;;7.70;99.90;;;;;;5031076;28;20052;-65
2023/01/11 08:55:18;;;;;;;5.70;2.40;;;7.70;99.90;;;;;;5032121;28;20114;-72
2023/01/11 08:57:46;;;;;;;5.50;2.50;;;7.70;99.90;;;;;;5029957;28;20495;-66
2023/01/11 09:00:14;;;;;;;5.70;2.92;;;7.70;99.90;;;;;;5028655;28;20142;-65
2023/01/11 09:02:44;;;;;;;6.80;2.95;;;7.70;99.90;;;;;;5031887;28;20129;-73
2023/01/11 09:05:11;;;;;;;7.47;2.75;;;7.70;99.90;;;;;;5020940;28;20038;-71
2023/01/11 09:07:38;;;;;;;6.78;2.70;;;7.70;99.90;;;;;;5028681;28;20048;-69
2023/01/11 09:10:06;;;;;;;5.65;2.05;;;7.70;99.90;;;;;;5041443;28;20506;-70
2023/01/11 09:12:34;;;;;;;6.20;2.47;;;7.70;99.90;;;;;;5015327;28;20143;-67
2023/01/11 09:15:04;;;;;;;6.15;2.33;;;7.70;99.90;;;;;;5034276;28;20507;-69
2023/01/11 09:17:32;;;;;;;5.30;2.85;;;7.70;99.90;;;;;;5047322;28;20041;-69
2023/01/11 09:20:00;;;;;;;13.25;3.38;;;7.70;99.90;;;;;;5029649;28;20072;-69
2023/01/11 09:22:27;;;;;;;6.38;2.70;;;7.70;99.90;;;;;;5029477;28;20112;-69
2023/01/11 09:24:57;;;;;;;7.03;2.60;;;7.70;99.90;;;;;;5028464;28;20091;-69
2023/01/11 09:27:25;;;;;;;7.40;2.70;;;7.80;99.90;;;;;;5029748;28;20040;-70
2023/01/11 09:29:52;;;;;;;6.85;2.88;;;7.80;99.90;;;;;;5029652;28;20046;-70
2023/01/11 09:32:20;;;;;;;5.88;2.78;;;7.90;99.90;;;;;;5027833;28;20076;-70
2023/01/11 09:34:48;;;;;;;10.18;2.85;;;7.90;99.90;;;;;;5030619;28;20053;-70
2023/01/11 09:37:16;;;;;;;5.95;2.63;;;8.00;99.90;;;;;;5029215;28;20073;-70
2023/01/11 09:39:44;;;;;;;6.38;2.70;;;8.00;99.90;;;;;;5027700;28;20065;-70
2023/01/11 09:42:31;;;;;;;7.90;3.22;;;8.10;99.90;;;;;;5025960;28;20425;-70
2023/01/11 09:45:04;;;;;;;10.98;3.35;;;8.20;99.90;;;;;;5027060;28;20046;-70
2023/01/11 09:47:31;;;;;;;8.32;3.15;;;8.30;99.90;;;;;;5027005;28;20346;-70
2023/01/11 09:50:05;;;;;;;5.95;2.88;;;8.30;99.90;;;;;;5028624;28;20041;-70
2023/01/11 09:52:41;;;;;;;11.68;4.35;;;8.40;99.90;;;;;;5011325;28;20483;-70
2023/01/11 09:55:26;;;;;;;10.07;3.80;;;8.50;99.90;;;;;;5028627;28;20045;-68
2023/01/11 09:58:31;;;;;;;6.20;2.95;;;8.50;99.90;;;;;;5033499;28;20433;-69
2023/01/11 10:01:15;;;;;;;8.20;2.95;;;8.40;99.90;;;;;;5026791;28;20123;-69
2023/01/11 10:04:15;;;;;;;7.93;3.10;;;8.60;99.90;;;;;;5026773;28;20068;-66
2023/01/11 10:07:13;;;;;;;6.93;2.88;;;8.60;99.90;;;;;;5021076;28;20065;-68
2023/01/11 10:10:15;;;;;;;6.43;2.85;;;8.60;99.90;;;;;;5017799;28;20080;-71
2023/01/11 10:13:21;;;;;;;5.75;2.95;;;8.70;99.90;;;;;;4990401;28;20065;-69
2023/01/11 10:16:23;;;;;;;6.35;2.75;;;8.70;99.90;;;;;;4992725;28;20046;-69
2023/01/11 10:19:18;;;;;;;7.75;3.03;;;8.80;99.90;;;;;;5007108;28;20128;-70
2023/01/11 10:22:16;;;;;;;8.15;2.83;;;8.80;99.90;;;;;;4986258;28;20065;-69
2023/01/11 10:24:50;;;;;;;4.95;2.40;;;8.90;99.90;;;;;;5004702;28;20054;-70
2023/01/11 10:27:36;;;;;;;9.57;3.92;;;9.00;99.90;;;;;;4970089;28;20042;-69
2023/01/11 10:36:17;;;;;;;8.52;2.78;;;9.30;99.90;;;;;;5004826;28;20049;-68
2023/01/11 10:39:10;;;;;;;5.47;3.00;;;9.40;99.90;;;;;;5003160;28;20097;-71
2023/01/11 10:42:09;;;;;;;5.35;2.33;;;9.40;99.90;;;;;;4988051;28;20152;-68
2023/01/11 10:44:56;;;;;;;5.07;2.20;;;9.50;99.90;;;;;;4985776;28;20836;-69
2023/01/11 10:47:36;;;;;;;3.78;2.05;;;9.40;99.90;;;;;;4976387;28;20045;-69
2023/01/11 10:50:33;;;;;;;4.55;2.30;;;9.50;99.90;;;;;;5015713;28;20524;-71
2023/01/11 10:53:06;;;;;;;7.40;2.55;;;9.50;99.90;;;;;;5018546;28;20053;-68
2023/01/11 10:55:44;;;;;;;5.97;2.60;;;9.40;99.90;;;;;;5030455;28;20392;-71
2023/01/11 10:58:34;;;;;;;3.60;1.90;;;9.40;99.90;;;;;;5031884;28;20099;-70
2023/01/11 11:01:15;;;;;;;6.75;2.10;;;9.40;99.90;;;;;;5049273;28;20037;-70
2023/01/11 11:03:52;;;;;;;4.00;1.90;;;9.40;99.90;;;;;;5031711;28;20523;-70
2023/01/11 11:06:28;;;;;;;5.68;2.63;;;9.40;99.90;;;;;;5033174;28;20151;-70
2023/01/11 11:09:22;;;;;;;6.53;2.28;;;9.40;99.90;;;;;;5037651;28;20061;-70
2023/01/11 11:12:07;;;;;;;5.50;2.20;;;9.50;99.90;;;;;;5025057;28;20046;-70
2023/01/11 11:14:56;;;;;;;5.90;2.78;;;9.50;99.90;;;;;;5054479;28;20420;-71
2023/01/11 11:17:29;;;;;;;5.65;2.20;;;9.50;99.90;;;;;;5032888;28;20045;-67
2023/01/11 11:19:57;;;;;;;4.60;2.30;;;9.50;99.90;;;;;;5035916;28;20073;-70
2023/01/11 11:22:24;;;;;;;6.35;2.75;;;9.60;99.90;;;;;;5038784;28;20111;-69
2023/01/11 11:25:03;;;;;;;7.18;2.55;;;9.50;99.90;;;;;;5030431;28;20037;-68
2023/01/11 11:27:45;;;;;;;6.28;2.38;;;9.50;99.90;;;;;;5031037;28;20052;-70
2023/01/11 11:30:23;;;;;;;5.23;1.90;;;9.40;99.90;;;;;;5040347;28;20136;-69
2023/01/11 11:32:59;;;;;;;6.28;1.80;;;9.40;99.90;;;;;;5014422;28;20052;-69
2023/01/11 11:35:33;;;;;;;3.70;1.95;;;9.30;99.90;;;;;;5013467;28;20033;-66
2023/01/11 11:38:00;;;;;;;7.57;2.13;;;9.40;99.90;;;;;;5027138;28;20049;-69
2023/01/11 11:40:37;;;;;;;4.15;2.10;;;9.20;99.90;;;;;;5030652;28;20499;-69
2023/01/11 11:43:10;;;;;;;4.15;1.98;;;9.20;99.90;;;;;;5026778;28;20037;-69
2023/01/11 11:45:53;;;;;;;3.95;2.08;;;9.20;99.90;;;;;;5038101;28;20503;-69
2023/01/11 11:48:21;;;;;;;4.13;2.05;;;9.20;99.90;;;;;;5027267;28;20491;-68
2023/01/11 11:50:51;;;;;;;6.47;1.95;;;9.20;99.90;;;;;;5030259;28;20052;-69
2023/01/11 11:53:42;;;;;;;3.45;1.65;;;9.10;99.90;;;;;;5028837;28;20403;-69
2023/01/11 11:56:33;;;;;;;3.83;1.80;;;9.10;99.90;;;;;;5039412;28;20040;-71
2023/01/11 11:59:09;;;;;;;3.58;1.77;;;9.10;99.90;;;;;;5025680;28;20041;-69
2023/01/11 12:01:45;;;;;;;4.82;2.08;;;9.10;99.90;;;;;;5027869;28;20042;-70
2023/01/11 12:04:17;;;;;;;4.65;1.90;;;9.10;99.90;;;;;;5032884;28;20484;-70
2023/01/11 12:07:15;;;;;;;4.80;1.90;;;9.10;99.90;;;;;;5028835;28;20054;-69
2023/01/11 12:09:49;;;;;;;9.52;2.00;;;9.10;99.90;;;;;;5030052;28;20042;-69
2023/01/11 12:12:19;;;;;;;5.45;2.50;;;9.10;99.90;;;;;;5013605;28;20068;-69
2023/01/11 12:15:21;;;;;;;8.70;2.30;;;9.00;99.90;;;;;;5018097;28;20083;-70
2023/01/11 12:17:49;;;;;;;4.55;2.00;;;9.00;99.90;;;;;;4992844;28;20431;-66
2023/01/11 12:20:29;;;;;;;7.13;2.30;;;8.90;99.90;;;;;;5029447;28;20060;-68
2023/01/11 12:23:23;;;;;;;4.97;2.40;;;8.90;99.90;;;;;;5030071;28;20403;-65
2023/01/11 12:26:15;;;;;;;5.75;2.42;;;8.90;99.90;;;;;;5024589;28;20610;-68
2023/01/11 12:28:45;;;;;;;5.13;2.85;;;8.90;99.90;;;;;;5043837;28;20496;-68
2023/01/11 12:31:39;;;;;;;7.90;2.70;;;8.90;99.90;;;;;;5017295;28;20041;-64
2023/01/11 12:34:46;;;;;;;5.40;2.47;;;8.90;99.90;;;;;;5036392;28;20050;-65
2023/01/11 12:37:36;;;;;;;7.85;2.72;;;8.90;99.90;;;;;;5028531;28;20432;-69
2023/01/11 12:40:23;;;;;;;8.32;2.58;;;8.90;99.90;;;;;;5013760;28;20422;-66
2023/01/11 12:43:21;;;;;;;5.07;2.40;;;8.90;99.90;;;;;;5037613;28;20041;-69
2023/01/11 12:45:56;;;;;;;7.13;2.63;;;8.90;99.90;;;;;;5029253;28;20060;-69
2023/01/11 12:48:31;;;;;;;5.90;2.70;;;8.80;99.90;;;;;;5031131;28;20441;-66
2023/01/11 12:51:11;;;;;;;6.10;2.70;;;8.80;99.90;;;;;;5031178;28;20033;-69
2023/01/11 12:53:57;;;;;;;6.05;2.85;;;8.80;99.90;;;;;;5024790;28;20129;-70
2023/01/11 12:57:00;;;;;;;6.03;2.40;;;8.80;99.90;;;;;;5013594;28;20119;-70
2023/01/11 12:59:59;;;;;;;5.55;2.63;;;8.70;99.90;;;;;;5029854;28;20441;-69
2023/01/11 13:02:45;;;;;;;7.10;2.47;;;8.70;99.90;;;;;;5026011;28;20045;-69
2023/01/11 13:05:34;;;;;;;6.35;2.63;;;8.60;99.90;;;;;;5029305;28;20048;-68
2023/01/11 13:08:27;;;;;;;8.30;2.63;;;8.60;99.90;;;;;;5016468;28;20041;-67
2023/01/11 13:11:12;;;;;;;7.68;2.67;;;8.60;99.90;;;;;;5027892;28;20038;-68
2023/01/11 13:14:20;;;;;;;6.80;2.90;;;8.50;99.90;;;;;;5037537;28;20103;-67
2023/01/11 13:17:19;;;;;;;9.35;3.42;;;8.50;99.90;;;;;;5025763;28;20058;-67
2023/01/11 13:19:50;;;;;;;8.68;4.32;;;8.50;99.90;;;;;;5028790;28;20091;-69
2023/01/11 13:22:22;;;;;;;9.60;3.90;;;8.50;99.90;;;;;;5028205;28;20060;-69
2023/01/11 13:24:49;;;;;;;;;;;8.50;99.90;;;;;;5030560;28;20049;-68
2023/01/11 13:27:21;;;;;;;8.43;3.30;;;8.50;99.90;;;;;;5030046;28;19960;-69
2023/01/11 13:29:58;;;;;;;6.07;3.40;;;8.50;99.90;;;;;;5030394;28;20050;-68
2023/01/11 13:32:35;;;;;;;6.95;3.10;;;8.50;99.90;;;;;;5030389;28;20384;-68
2023/01/11 13:35:15;;;;;;;6.43;2.85;;;8.50;99.90;;;;;;5030225;28;20495;-68
2023/01/11 13:37:55;;;;;;;5.68;2.58;;;8.50;99.90;;;;;;5027094;28;20474;-66
2023/01/11 13:40:54;;;;;;;6.47;3.22;;;8.60;99.90;;;;;;5029918;28;20049;-69
2023/01/11 13:43:36;;;;;;;8.40;3.00;;;8.60;99.90;;;;;;5019835;28;20042;-69
2023/01/11 13:46:30;;;;;;;6.37;3.03;;;8.60;99.90;;;;;;5013527;28;20045;-67
2023/01/11 13:49:17;;;;;;;7.57;3.90;;;8.60;99.90;;;;;;5025443;28;20041;-67
2023/01/11 13:52:06;;;;;;;8.65;4.03;;;8.60;99.90;;;;;;5026835;28;20128;-68
2023/01/11 13:54:58;;;;;;;8.38;4.30;;;8.60;99.90;;;;;;5028497;28;20431;-65
2023/01/11 13:58:03;;;;;;;9.13;4.18;;;8.60;99.90;;;;;;5014094;28;20483;-68
2023/01/11 14:00:41;;;;;;;8.05;3.83;;;8.60;99.90;;;;;;5026873;28;20136;-69
2023/01/11 14:03:43;;;;;;;8.38;3.85;;;8.60;99.90;;;;;;5015618;28;20048;-66